Etusivu
METAR-TAF:

METAR-TAF

Lentoasemat :

Tahoua, Niger

Leveyspiiri: 14-54N, Pituuspiiri: 005-15E, korkeus merenpinnasta: 386 m

Tämänhetkinen sää

Tämä raportti tehtiin 2 tuntia ja 7 minuuttia sitten, kello 15.00 UTC
Tuuli 2 kn lännestä
Lämpötila 35°C
Kosteus 37%
Ilmanpaine 1011 hPa
Näkyvyys 10 km tai enemmän
Muutamia pilviä 4000 ft:n korkeudessa

METAR: DRRT 191500Z 28002KT 9999 FEW040 35/18 Q1011

Aika: 18:07 (17:07 UTC)


TAF: puuttuu

Säähavainnot ja -ennusteet yli 4000 lentoasemalta (METAR- ja TAF-raportit).

Käytössä olevat sääasemat on merkitty karttaan keltaisilla ja punaisilla pisteillä.

Aseta hiiri pisteen päälle nähdäksesi sääaseman nimen.

Klikkaa sitten nähdäksesi säähavainnot ja -ennusteet.

Kartan vaihtaminen: klikkaa mustalla rastilla varustettuja vihreitä pisteitä, niin voit zoomata sisään; viivalla varustettua vihreää pistettä, niin voit zoomata ulos tai vihreitä nuolia, niin pääset viereisille kartoille.


METAR-TAF: